首页
METAR-TAF:

METAR-TAF

机场 :

温贝托·德尔加多机场

里斯本, 葡萄牙

纬度: 38-46N, 经度: 009-08W, 海拔: 114米

当前天气观测

该预报发布于21分钟前的12:30 UTC
风速3节,风向东南,有时为14节阵风,在东转东北之间变化
温度 14°C
湿度 94%
气压 1000 hPa
能见度10公里或以上
少量云层高于500英尺
散云层高于4000英尺

METAR: LPPT 181230Z 14003G14KT 060V190 9999 FEW005 SCT040 14/13 Q1000

时间: 12:51 (12:51 UTC)

预报

该预报发布于1小时和21分钟前的11:30 UTC
预报有效从18日的 12点(UTC)到 19日的 18点(UTC)
风速7节,风向西
能见度10公里或以上
散云层高于2000英尺
短暂存在
从 18日的 12点(UTC)到 19日的 18点(UTC)
能見度: 8000
多云层高于1400英尺
少量云层高于2000英尺, 塔状积云.
阵雨
几率 30% :
短暂存在
从 18日的 12点(UTC)到 18日的 18点(UTC)
风速15节,风向多变,有时为25节阵风
能見度: 3000
多云层高于1000英尺
散云层高于1800英尺, 积雨云.
雷暴, 雨

TAF: LPPT 181130Z 1812/1918 27007KT 9999 SCT020 TEMPO 1812/1918 8000 SHRA BKN014 FEW020TCU PROB30 TEMPO 1812/1818 VRB15G25KT 3000 TSRA BKN010 SCT018CB

超过4000个机场的气象观测和天气预报(METAR&TAF报告)。

可查询的气象台以黄色和红色小点在地图上表示。

将鼠标移到小点上方,可查看气象台名称。

然后点击查看天气观测和预报。

如需切换地图:点击带黑十字的绿色按钮放大地图;点击带横线的绿色按钮缩小地图;或者点击绿色箭头查看邻近地区的地图。


METAR-TAF: